createdAt,value
2023-05-14T00:00:34.946Z,45.5227
2023-05-14T00:01:36.789Z,45.4806
2023-05-14T00:02:38.716Z,45.4835
2023-05-14T00:03:40.539Z,45.4671
2023-05-14T00:04:42.294Z,45.4879
2023-05-14T00:05:44.168Z,45.5023
2023-05-14T00:06:45.980Z,45.4978
2023-05-14T00:07:47.823Z,45.4568
2023-05-14T00:08:49.662Z,45.4530
2023-05-14T00:09:51.494Z,45.4499
2023-05-14T00:10:53.361Z,45.4461
2023-05-14T00:11:55.187Z,45.4218
2023-05-14T00:12:57.035Z,45.4400
2023-05-14T00:13:58.897Z,45.4663
2023-05-14T00:15:00.695Z,45.4892
2023-05-14T00:16:02.578Z,45.4827
2023-05-14T00:17:04.402Z,45.4687
2023-05-14T00:18:06.326Z,45.4529
2023-05-14T00:19:08.082Z,45.4497
2023-05-14T00:20:09.935Z,45.4255
2023-05-14T00:21:11.764Z,45.4488
2023-05-14T00:22:13.593Z,45.4532
2023-05-14T00:23:15.434Z,45.4622
2023-05-14T00:24:17.269Z,45.4353
2023-05-14T00:25:19.105Z,45.4503
2023-05-14T00:26:20.988Z,45.4117
2023-05-14T00:27:22.807Z,45.4147
2023-05-14T00:28:24.637Z,45.4188
2023-05-14T00:29:26.478Z,45.4188
2023-05-14T00:30:28.310Z,45.4406
2023-05-14T00:31:30.165Z,45.4158
2023-05-14T00:32:32.033Z,45.4092
2023-05-14T00:33:33.841Z,45.3926
2023-05-14T00:34:35.687Z,45.3924
2023-05-14T00:35:37.509Z,45.3815
2023-05-14T00:36:39.392Z,45.3592
2023-05-14T00:37:41.196Z,45.3791
2023-05-14T00:38:43.051Z,45.3511
2023-05-14T00:39:44.887Z,45.3565
2023-05-14T00:40:46.712Z,45.3444
2023-05-14T00:41:48.563Z,45.3746
2023-05-14T00:42:50.416Z,45.3759
2023-05-14T00:43:52.244Z,45.3934
2023-05-14T00:44:54.119Z,45.3712
2023-05-14T00:45:55.948Z,45.3195
2023-05-14T00:46:57.804Z,45.3611
2023-05-14T00:47:59.721Z,45.3836
2023-05-14T00:49:01.437Z,45.3775
2023-05-14T00:50:03.273Z,45.3442
2023-05-14T00:51:05.159Z,45.3184
2023-05-14T00:52:06.970Z,45.2988
2023-05-14T00:53:08.817Z,45.2893
2023-05-14T00:54:10.638Z,45.2829
2023-05-14T00:55:12.482Z,45.2827
2023-05-14T00:56:14.322Z,45.2441
2023-05-14T00:57:16.193Z,45.2312
2023-05-14T00:58:18.052Z,45.1998
2023-05-14T00:59:19.864Z,45.1813
2023-05-14T01:00:21.867Z,45.2106
2023-05-14T01:01:23.547Z,45.2395
2023-05-14T01:02:25.457Z,45.2287
2023-05-14T01:03:27.405Z,45.1943
2023-05-14T01:04:29.062Z,45.1864
2023-05-14T01:05:30.868Z,45.1837
2023-05-14T01:06:32.707Z,45.1421
2023-05-14T01:07:34.548Z,45.1552
2023-05-14T01:08:36.399Z,45.1593
2023-05-14T01:09:38.251Z,45.1463
2023-05-14T01:10:40.086Z,45.1389
2023-05-14T01:11:41.908Z,45.1288
2023-05-14T01:12:43.754Z,45.0722
2023-05-14T01:13:45.597Z,45.0701
2023-05-14T01:14:47.453Z,45.0607
2023-05-14T01:15:49.302Z,45.1209
2023-05-14T01:16:51.170Z,45.1459
2023-05-14T01:17:52.970Z,45.1288
2023-05-14T01:18:54.897Z,45.1280
2023-05-14T01:19:56.635Z,45.1241
2023-05-14T01:20:58.529Z,45.0732
2023-05-14T01:22:00.335Z,45.0890
2023-05-14T01:23:02.142Z,45.0947
2023-05-14T01:24:04.017Z,45.0812
2023-05-14T01:25:05.837Z,45.0779
2023-05-14T01:26:07.677Z,45.0915
2023-05-14T01:27:09.515Z,45.0604
2023-05-14T01:28:11.361Z,45.0637
2023-05-14T01:29:13.181Z,45.0736
2023-05-14T01:30:15.037Z,45.0848
2023-05-14T01:31:16.895Z,45.0698
2023-05-14T01:32:18.777Z,45.0503
2023-05-14T01:33:20.565Z,45.0553
2023-05-14T01:34:22.391Z,45.0262
2023-05-14T01:35:24.247Z,45.0418
2023-05-14T01:36:26.097Z,45.0220
2023-05-14T01:37:27.934Z,45.0461
2023-05-14T01:38:29.779Z,45.1086
2023-05-14T01:39:31.656Z,45.0841
2023-05-14T01:40:33.487Z,45.0310
2023-05-14T01:41:35.281Z,45.0125
2023-05-14T01:42:37.122Z,45.0279
2023-05-14T01:43:38.986Z,45.0172
2023-05-14T01:44:40.824Z,45.0018
2023-05-14T01:45:42.732Z,44.9787
2023-05-14T01:46:44.496Z,44.9802
2023-05-14T01:47:46.372Z,44.9881
2023-05-14T01:48:48.176Z,44.9530
2023-05-14T01:49:50.027Z,44.9175
2023-05-14T01:50:51.867Z,44.9276
2023-05-14T01:51:53.719Z,44.9234
2023-05-14T01:52:55.546Z,44.8986
2023-05-14T01:53:57.400Z,44.8782
2023-05-14T01:54:59.224Z,44.8915
2023-05-14T01:56:01.053Z,44.8729
2023-05-14T01:57:02.939Z,44.8892
2023-05-14T01:58:04.738Z,44.9049
2023-05-14T01:59:06.574Z,44.9060
2023-05-14T02:00:08.419Z,44.8801
2023-05-14T02:01:10.289Z,44.8644
2023-05-14T02:02:13.048Z,44.8398
2023-05-14T02:03:14.003Z,44.8287
2023-05-14T02:04:15.855Z,44.7799
2023-05-14T02:05:25.162Z,44.7384
2023-05-14T02:06:19.437Z,44.7021
2023-05-14T02:07:21.288Z,44.7039
2023-05-14T02:08:23.147Z,44.6665
2023-05-14T02:09:24.987Z,44.6735
2023-05-14T02:10:34.379Z,44.6911
2023-05-14T02:11:28.681Z,44.6948
2023-05-14T02:12:30.490Z,44.6936
2023-05-14T02:13:32.336Z,44.7084
2023-05-14T02:14:34.192Z,44.6564
2023-05-14T02:15:36.076Z,44.6577
2023-05-14T02:16:37.844Z,44.6750
2023-05-14T02:17:39.733Z,44.6938
2023-05-14T02:18:41.592Z,44.6891
2023-05-14T02:19:43.363Z,44.6507
2023-05-14T02:20:45.196Z,44.6219
2023-05-14T02:21:47.050Z,44.6067
2023-05-14T02:22:48.889Z,44.6641
2023-05-14T02:23:50.730Z,44.6615
2023-05-14T02:24:52.575Z,44.6210
2023-05-14T02:25:54.415Z,44.6409
2023-05-14T02:26:56.234Z,44.6462
2023-05-14T02:27:58.084Z,44.6048
2023-05-14T02:28:59.926Z,44.5923
2023-05-14T02:30:01.795Z,44.5592
2023-05-14T02:31:03.652Z,44.5868
2023-05-14T02:32:05.510Z,44.5483
2023-05-14T02:33:07.418Z,44.5463
2023-05-14T02:34:09.117Z,44.5283
2023-05-14T02:35:10.962Z,44.5228
2023-05-14T02:36:12.802Z,44.5612
2023-05-14T02:37:14.628Z,44.5842
2023-05-14T02:38:16.491Z,44.5874
2023-05-14T02:39:18.334Z,44.5769
2023-05-14T02:40:20.158Z,44.5492
2023-05-14T02:41:21.979Z,44.5237
2023-05-14T02:42:23.826Z,44.5308
2023-05-14T02:43:25.663Z,44.5611
2023-05-14T02:44:27.520Z,44.5595
2023-05-14T02:45:29.337Z,44.5410
2023-05-14T02:46:31.295Z,44.5190
2023-05-14T02:47:33.142Z,44.5312
2023-05-14T02:48:34.921Z,44.5050
2023-05-14T02:49:36.767Z,44.5108
2023-05-14T02:50:38.607Z,44.5079
2023-05-14T02:51:40.430Z,44.5032
2023-05-14T02:52:42.271Z,44.5483
2023-05-14T02:53:44.120Z,44.5432
2023-05-14T02:54:45.951Z,44.5476
2023-05-14T02:55:47.801Z,44.4932
2023-05-14T02:56:49.636Z,44.5113
2023-05-14T02:57:51.454Z,44.5375
2023-05-14T02:58:53.303Z,44.5113
2023-05-14T02:59:55.136Z,44.4755
2023-05-14T03:00:57.003Z,44.4694
2023-05-14T03:01:58.873Z,44.4496
2023-05-14T03:03:00.709Z,44.4572
2023-05-14T03:04:02.472Z,44.4761
2023-05-14T03:05:04.324Z,44.4778
2023-05-14T03:06:06.153Z,44.4541
2023-05-14T03:07:07.990Z,44.4837
2023-05-14T03:08:09.851Z,44.5129
2023-05-14T03:09:11.657Z,44.4484
2023-05-14T03:10:13.508Z,44.4362
2023-05-14T03:11:15.345Z,44.4045
2023-05-14T03:12:17.174Z,44.3899
2023-05-14T03:13:19.015Z,44.4284
2023-05-14T03:14:20.872Z,44.4315
2023-05-14T03:15:22.681Z,44.4046
2023-05-14T03:16:24.546Z,44.3787
2023-05-14T03:17:26.366Z,44.3690
2023-05-14T03:18:28.228Z,44.4258
2023-05-14T03:19:30.044Z,44.4084
2023-05-14T03:20:31.876Z,44.3389
2023-05-14T03:21:33.688Z,44.3108
2023-05-14T03:22:35.528Z,44.3107
2023-05-14T03:23:37.397Z,44.3304
2023-05-14T03:24:39.215Z,44.3405
2023-05-14T03:25:41.056Z,44.3077
2023-05-14T03:26:42.938Z,44.3174
2023-05-14T03:27:44.724Z,44.3555
2023-05-14T03:28:46.552Z,44.3203
2023-05-14T03:29:48.378Z,44.2690
2023-05-14T03:30:50.245Z,44.2645
2023-05-14T03:31:52.068Z,44.2431
2023-05-14T03:32:53.961Z,44.2236
2023-05-14T03:33:55.724Z,44.1966
2023-05-14T03:34:57.559Z,44.1780
2023-05-14T03:35:59.402Z,44.2006
2023-05-14T03:37:01.247Z,44.2098
2023-05-14T03:38:03.080Z,44.2032
2023-05-14T03:39:04.957Z,44.1838
2023-05-14T03:40:06.750Z,44.1598
2023-05-14T03:41:08.579Z,44.1501
2023-05-14T03:42:10.409Z,44.1439
2023-05-14T03:43:12.271Z,44.2086
2023-05-14T03:44:14.107Z,44.2108
2023-05-14T03:45:15.979Z,44.1903
2023-05-14T03:46:17.771Z,44.1513
2023-05-14T03:47:19.607Z,44.1075
2023-05-14T03:48:21.536Z,44.1346
2023-05-14T03:49:23.294Z,44.1497
2023-05-14T03:50:25.354Z,44.1810
2023-05-14T03:51:26.977Z,44.1693
2023-05-14T03:52:28.799Z,44.1472
2023-05-14T03:53:30.646Z,44.1865
2023-05-14T03:54:32.488Z,44.1909
2023-05-14T03:55:34.321Z,44.1643
2023-05-14T03:56:36.172Z,44.1513
2023-05-14T03:57:38.040Z,44.1646
2023-05-14T03:58:39.844Z,44.1546
2023-05-14T03:59:41.701Z,44.1647
2023-05-14T04:00:43.546Z,44.1695
2023-05-14T04:01:45.371Z,44.1952
2023-05-14T04:02:47.311Z,44.2258
2023-05-14T04:03:49.211Z,44.2079
2023-05-14T04:04:50.935Z,44.1823
2023-05-14T04:05:52.734Z,44.1706
2023-05-14T04:06:54.578Z,44.1622
2023-05-14T04:07:56.407Z,44.2010
2023-05-14T04:08:58.251Z,44.1814
2023-05-14T04:10:01.793Z,44.1744
2023-05-14T04:11:01.942Z,44.1941
2023-05-14T04:12:03.788Z,44.2217
2023-05-14T04:13:05.622Z,44.2317
2023-05-14T04:14:07.460Z,44.2814
2023-05-14T04:15:09.288Z,44.2790
2023-05-14T04:16:11.180Z,44.2192
2023-05-14T04:17:12.977Z,44.1743
2023-05-14T04:18:14.849Z,44.1558
2023-05-14T04:19:16.749Z,44.1444
2023-05-14T04:20:18.482Z,44.1532
2023-05-14T04:21:20.314Z,44.1600
2023-05-14T04:22:22.175Z,44.1404
2023-05-14T04:23:23.979Z,44.1446
2023-05-14T04:24:25.810Z,44.1422
2023-05-14T04:25:27.648Z,44.1004
2023-05-14T04:26:29.487Z,44.1176
2023-05-14T04:27:31.341Z,44.1142
2023-05-14T04:28:33.201Z,44.0826
2023-05-14T04:29:35.008Z,44.1168
2023-05-14T04:30:36.846Z,44.1078
2023-05-14T04:31:38.708Z,44.0944
2023-05-14T04:32:40.577Z,44.0999
2023-05-14T04:33:42.364Z,44.0905
2023-05-14T04:34:44.221Z,44.0775
2023-05-14T04:35:46.038Z,44.0882
2023-05-14T04:36:47.872Z,44.1146
2023-05-14T04:37:49.717Z,44.1031
2023-05-14T04:38:51.568Z,44.0926
2023-05-14T04:39:53.392Z,44.0818
2023-05-14T04:40:55.252Z,44.1082
2023-05-14T04:41:57.067Z,44.1095
2023-05-14T04:42:58.903Z,44.1486
2023-05-14T04:44:00.729Z,44.2011
2023-05-14T04:45:02.595Z,44.2201
2023-05-14T04:46:04.453Z,44.2184
2023-05-14T04:47:06.267Z,44.2262
2023-05-14T04:48:08.136Z,44.1829
2023-05-14T04:49:09.924Z,44.1615
2023-05-14T04:50:11.767Z,44.1659
2023-05-14T04:51:13.593Z,44.2095
2023-05-14T04:52:15.449Z,44.2580
2023-05-14T04:53:17.306Z,44.2385
2023-05-14T04:54:19.156Z,44.2483
2023-05-14T04:55:20.966Z,44.2726
2023-05-14T04:56:22.807Z,44.2830
2023-05-14T04:57:24.629Z,44.2588
2023-05-14T04:58:26.476Z,44.2532
2023-05-14T04:59:28.346Z,44.2562
2023-05-14T05:00:30.170Z,44.2974
2023-05-14T05:01:32.028Z,44.2915
2023-05-14T05:02:33.877Z,44.2926
2023-05-14T05:03:35.690Z,44.2744
2023-05-14T05:04:37.496Z,44.2738
2023-05-14T05:05:39.373Z,44.3007
2023-05-14T05:06:41.214Z,44.3331
2023-05-14T05:07:43.016Z,44.2903
2023-05-14T05:08:44.852Z,44.2688
2023-05-14T05:09:46.687Z,44.2281
2023-05-14T05:10:48.553Z,44.1957
2023-05-14T05:11:50.406Z,44.2004
2023-05-14T05:12:52.226Z,44.2091
2023-05-14T05:13:54.045Z,44.1993
2023-05-14T05:14:55.881Z,44.2062
2023-05-14T05:15:57.755Z,44.2495
2023-05-14T05:16:59.569Z,44.2937
2023-05-14T05:18:01.441Z,44.2906
2023-05-14T05:19:03.283Z,44.2947
2023-05-14T05:20:05.070Z,44.3005
2023-05-14T05:21:06.920Z,44.3066
2023-05-14T05:22:08.754Z,44.3148
2023-05-14T05:23:10.575Z,44.3363
2023-05-14T05:24:12.441Z,44.3496
2023-05-14T05:25:14.251Z,44.3730
2023-05-14T05:26:16.107Z,44.3415
2023-05-14T05:27:17.934Z,44.3381
2023-05-14T05:28:19.770Z,44.3015
2023-05-14T05:29:21.594Z,44.2603
2023-05-14T05:30:23.680Z,44.2794
2023-05-14T05:31:25.417Z,44.2958
2023-05-14T05:32:27.113Z,44.3486
2023-05-14T05:33:28.958Z,44.3822
2023-05-14T05:34:30.783Z,44.3760
2023-05-14T05:35:32.625Z,44.4255
2023-05-14T05:36:34.473Z,44.4301
2023-05-14T05:37:36.304Z,44.4240
2023-05-14T05:38:38.142Z,44.4146
2023-05-14T05:39:39.986Z,44.4123
2023-05-14T05:40:41.812Z,44.4767
2023-05-14T05:41:43.653Z,44.4898
2023-05-14T05:42:45.518Z,44.5402
2023-05-14T05:43:47.340Z,44.5815
2023-05-14T05:44:49.176Z,44.6169
2023-05-14T05:45:51.046Z,44.6046
2023-05-14T05:46:52.916Z,44.5676
2023-05-14T05:47:54.719Z,44.5944
2023-05-14T05:48:56.547Z,44.5794
2023-05-14T05:49:58.368Z,44.5842
2023-05-14T05:51:00.212Z,44.6046
2023-05-14T05:52:02.033Z,44.5665
2023-05-14T05:53:03.899Z,44.6259
2023-05-14T05:54:05.735Z,44.6244
2023-05-14T05:55:07.596Z,44.6162
2023-05-14T05:56:09.413Z,44.6428
2023-05-14T05:57:11.260Z,44.6097
2023-05-14T05:58:13.101Z,44.6402
2023-05-14T05:59:14.937Z,44.6328
2023-05-14T06:00:16.761Z,44.6105
2023-05-14T06:01:18.647Z,44.5885
2023-05-14T06:02:20.491Z,44.5881
2023-05-14T06:03:22.376Z,44.6337
2023-05-14T06:04:24.141Z,44.6124
2023-05-14T06:05:25.989Z,44.6537
2023-05-14T06:06:27.805Z,44.6809
2023-05-14T06:07:29.697Z,44.7132
2023-05-14T06:08:31.495Z,44.7770
2023-05-14T06:09:33.342Z,44.8081
2023-05-14T06:10:35.184Z,44.7833
2023-05-14T06:11:37.033Z,44.8370
2023-05-14T06:12:38.866Z,44.8760
2023-05-14T06:13:40.704Z,44.8975
2023-05-14T06:14:42.550Z,44.9450
2023-05-14T06:15:44.369Z,44.9255
2023-05-14T06:16:46.216Z,44.9448
2023-05-14T06:17:48.090Z,44.9748
2023-05-14T06:18:49.945Z,44.9873
2023-05-14T06:19:51.752Z,45.0299
2023-05-14T06:20:53.578Z,45.0342
2023-05-14T06:21:55.427Z,45.0569
2023-05-14T06:22:57.265Z,45.1265
2023-05-14T06:23:59.111Z,45.1361
2023-05-14T06:25:00.965Z,45.1677
2023-05-14T06:26:02.813Z,45.1540
2023-05-14T06:27:04.622Z,45.1645
2023-05-14T06:28:06.470Z,45.1551
2023-05-14T06:29:08.321Z,45.1600
2023-05-14T06:30:10.160Z,45.1700
2023-05-14T06:31:11.993Z,45.1742
2023-05-14T06:32:13.999Z,45.2037
2023-05-14T06:33:15.661Z,45.2111
2023-05-14T06:34:17.519Z,45.2408
2023-05-14T06:35:19.354Z,45.2479
2023-05-14T06:36:21.192Z,45.2605
2023-05-14T06:37:23.012Z,45.3194
2023-05-14T06:38:24.864Z,45.3540
2023-05-14T06:39:26.690Z,45.3395
2023-05-14T06:40:28.560Z,45.3502
2023-05-14T06:41:30.391Z,45.3947
2023-05-14T06:42:32.204Z,45.4299
2023-05-14T06:43:34.043Z,45.4612
2023-05-14T06:44:35.899Z,45.5041
2023-05-14T06:45:37.742Z,45.5111
2023-05-14T06:46:39.567Z,45.5585
2023-05-14T06:47:41.491Z,45.6125
2023-05-14T06:48:43.283Z,45.6240
2023-05-14T06:49:45.160Z,45.6785
2023-05-14T06:50:47.029Z,45.6880
2023-05-14T06:51:48.830Z,45.7021
2023-05-14T06:52:50.677Z,45.7267
2023-05-14T06:53:52.527Z,45.7697
2023-05-14T06:54:54.364Z,45.8169
2023-05-14T06:55:56.210Z,45.8412
2023-05-14T06:56:58.060Z,45.8808
2023-05-14T06:57:59.882Z,45.8939
2023-05-14T06:59:01.729Z,45.9707
2023-05-14T07:00:03.905Z,46.0298
2023-05-14T07:01:05.438Z,46.1089
2023-05-14T07:02:07.269Z,46.1769
2023-05-14T07:03:09.214Z,46.2558
2023-05-14T07:04:11.009Z,46.3078
2023-05-14T07:05:12.778Z,46.3388
2023-05-14T07:06:14.612Z,46.3774
2023-05-14T07:07:16.460Z,46.4355
2023-05-14T07:08:18.312Z,46.4939
2023-05-14T07:09:20.175Z,46.5353
2023-05-14T07:10:22.292Z,46.5425
2023-05-14T07:11:23.816Z,46.5803
2023-05-14T07:12:25.654Z,46.6141
2023-05-14T07:13:28.631Z,46.6591
2023-05-14T07:14:29.346Z,46.6938
2023-05-14T07:15:31.215Z,46.7573
2023-05-14T07:16:33.039Z,46.8102
2023-05-14T07:17:34.883Z,46.8636
2023-05-14T07:18:36.741Z,46.9067
2023-05-14T07:19:38.545Z,47.0235
2023-05-14T07:20:40.379Z,47.0451
2023-05-14T07:21:42.240Z,47.0426
2023-05-14T07:22:44.053Z,47.0702
2023-05-14T07:23:45.917Z,47.1294
2023-05-14T07:24:47.745Z,47.1540
2023-05-14T07:25:49.582Z,47.2358
2023-05-14T07:26:51.429Z,47.3372
2023-05-14T07:27:53.268Z,47.4007
2023-05-14T07:28:55.111Z,47.4006
2023-05-14T07:29:56.927Z,47.3971
2023-05-14T07:30:58.805Z,47.4404
2023-05-14T07:32:00.624Z,47.5357
2023-05-14T07:33:02.497Z,47.5764
2023-05-14T07:34:04.426Z,47.6035
2023-05-14T07:35:06.148Z,47.6453
2023-05-14T07:36:07.965Z,47.6710
2023-05-14T07:37:09.804Z,47.6944
2023-05-14T07:38:11.661Z,47.7252
2023-05-14T07:39:13.502Z,47.7428
2023-05-14T07:40:15.374Z,47.7726
2023-05-14T07:41:17.182Z,47.8435
2023-05-14T07:42:31.734Z,47.9899
2023-05-14T07:43:21.858Z,48.0745
2023-05-14T07:44:22.682Z,48.1302
2023-05-14T07:45:24.522Z,48.1523
2023-05-14T07:46:26.398Z,48.1767
2023-05-14T07:47:28.317Z,48.1836
2023-05-14T07:48:30.081Z,48.2161
2023-05-14T07:49:31.880Z,48.2812
2023-05-14T07:50:33.745Z,48.3222
2023-05-14T07:51:35.569Z,48.3435
2023-05-14T07:52:37.438Z,48.3774
2023-05-14T07:53:39.264Z,48.4174
2023-05-14T07:54:41.086Z,48.4491
2023-05-14T07:55:42.939Z,48.5393
2023-05-14T07:56:44.779Z,48.6025
2023-05-14T07:57:46.625Z,48.6050
2023-05-14T07:58:48.500Z,48.6517
2023-05-14T07:59:50.315Z,48.6926
2023-05-14T08:00:52.131Z,48.7108
2023-05-14T08:01:53.990Z,48.7142
2023-05-14T08:02:56.037Z,48.7237
2023-05-14T08:03:57.699Z,48.7393
2023-05-14T08:04:59.526Z,48.7292
2023-05-14T08:06:01.334Z,48.7397
2023-05-14T08:07:03.171Z,48.7296
2023-05-14T08:08:05.007Z,48.7713
2023-05-14T08:09:06.863Z,48.7806
2023-05-14T08:10:08.718Z,48.7974
2023-05-14T08:11:10.630Z,48.8031
2023-05-14T08:12:12.383Z,48.7757
2023-05-14T08:13:14.216Z,48.7542
2023-05-14T08:14:16.069Z,48.7265
2023-05-14T08:15:17.905Z,48.6818
2023-05-14T08:16:19.799Z,48.6441
2023-05-14T08:17:21.633Z,48.6690
2023-05-14T08:18:23.415Z,48.6697
2023-05-14T08:19:25.264Z,48.6441
2023-05-14T08:20:27.528Z,48.5953
2023-05-14T08:21:28.924Z,48.5808
2023-05-14T08:22:30.765Z,48.5726
2023-05-14T08:23:32.665Z,48.6112
2023-05-14T08:24:34.460Z,48.6512
2023-05-14T08:25:36.306Z,48.6661
2023-05-14T08:26:38.135Z,48.7150
2023-05-14T08:27:39.969Z,48.7309
2023-05-14T08:28:41.816Z,48.7603
2023-05-14T08:29:43.712Z,48.7550
2023-05-14T08:30:45.524Z,48.7369
2023-05-14T08:31:47.322Z,48.7624
2023-05-14T08:32:49.208Z,48.7676
2023-05-14T08:33:51.029Z,48.7573
2023-05-14T08:34:52.854Z,48.7605
2023-05-14T08:35:54.712Z,48.7745
2023-05-14T08:36:56.521Z,48.7782
2023-05-14T08:37:58.383Z,48.7584
2023-05-14T08:39:00.220Z,48.7208
2023-05-14T08:40:02.062Z,48.6933
2023-05-14T08:41:03.916Z,48.7070
2023-05-14T08:42:05.751Z,48.6490
2023-05-14T08:43:07.564Z,48.6525
2023-05-14T08:44:09.419Z,48.6748
2023-05-14T08:45:11.263Z,48.6734
2023-05-14T08:46:13.108Z,48.6718
2023-05-14T08:47:14.934Z,48.6786
2023-05-14T08:48:16.929Z,48.6480
2023-05-14T08:49:18.634Z,48.6580
2023-05-14T08:50:21.924Z,48.6681
2023-05-14T08:51:22.328Z,48.6691
2023-05-14T08:52:24.145Z,48.6692
2023-05-14T08:53:25.993Z,48.6698
2023-05-14T08:54:27.854Z,48.6731
2023-05-14T08:55:29.696Z,48.6373
2023-05-14T08:56:31.531Z,48.6244
2023-05-14T08:57:33.398Z,48.6457
2023-05-14T08:58:35.197Z,48.6462
2023-05-14T08:59:37.058Z,48.6467
2023-05-14T09:00:38.911Z,48.6208
2023-05-14T09:01:40.770Z,48.6097
2023-05-14T09:02:42.643Z,48.6462
2023-05-14T09:03:44.466Z,48.7061
2023-05-14T09:04:46.252Z,48.7064
2023-05-14T09:05:48.104Z,48.6782
2023-05-14T09:06:49.966Z,48.6768
2023-05-14T09:07:51.772Z,48.6610
2023-05-14T09:08:53.622Z,48.6665
2023-05-14T09:09:55.508Z,48.6458
2023-05-14T09:10:57.302Z,48.6511
2023-05-14T09:11:59.133Z,48.6717
2023-05-14T09:13:01.003Z,48.6937
2023-05-14T09:14:02.847Z,48.7703
2023-05-14T09:15:04.655Z,48.8028
2023-05-14T09:16:06.497Z,48.8177
2023-05-14T09:17:08.347Z,48.8569
2023-05-14T09:18:10.250Z,48.9096
2023-05-14T09:19:12.134Z,48.9325
2023-05-14T09:20:13.877Z,48.9474
2023-05-14T09:21:15.715Z,48.9582
2023-05-14T09:22:17.562Z,48.9331
2023-05-14T09:23:19.379Z,48.8574
2023-05-14T09:24:21.224Z,48.8058
2023-05-14T09:25:23.098Z,48.7524
2023-05-14T09:26:24.904Z,48.6872
2023-05-14T09:27:26.746Z,48.6578
2023-05-14T09:28:28.596Z,48.6219
2023-05-14T09:29:30.431Z,48.5830
2023-05-14T09:30:32.281Z,48.5859
2023-05-14T09:31:34.200Z,48.5922
2023-05-14T09:32:36.014Z,48.5741
2023-05-14T09:33:37.791Z,48.5758
2023-05-14T09:34:39.632Z,48.5659
2023-05-14T09:35:41.474Z,48.5667
2023-05-14T09:36:43.309Z,48.5593
2023-05-14T09:37:45.138Z,48.5254
2023-05-14T09:38:46.988Z,48.5234
2023-05-14T09:39:48.821Z,48.5401
2023-05-14T09:40:50.663Z,48.5972
2023-05-14T09:41:52.484Z,48.5906
2023-05-14T09:42:54.352Z,48.5664
2023-05-14T09:43:56.160Z,48.5848
2023-05-14T09:44:58.008Z,48.6318
2023-05-14T09:45:59.856Z,48.6193
2023-05-14T09:47:01.692Z,48.6266
2023-05-14T09:48:03.642Z,48.6843
2023-05-14T09:49:05.392Z,48.7806
2023-05-14T09:50:07.208Z,48.8116
2023-05-14T09:51:09.041Z,48.8496
2023-05-14T09:52:10.860Z,48.8710
2023-05-14T09:53:12.692Z,48.8806
2023-05-14T09:54:14.532Z,48.8736
2023-05-14T09:55:16.412Z,48.7903
2023-05-14T09:56:18.222Z,48.7901
2023-05-14T09:57:20.056Z,48.8293
2023-05-14T09:58:21.883Z,48.8994
2023-05-14T09:59:23.715Z,48.9669
2023-05-14T10:00:25.799Z,49.0589
2023-05-14T10:01:27.444Z,49.0964
2023-05-14T10:02:29.272Z,49.1893
2023-05-14T10:03:31.061Z,49.2841
2023-05-14T10:04:33.015Z,49.4149
2023-05-14T10:05:34.750Z,49.4456
2023-05-14T10:06:36.572Z,49.4739
2023-05-14T10:07:38.460Z,49.5191
2023-05-14T10:08:40.353Z,49.5436
2023-05-14T10:09:42.102Z,49.6122
2023-05-14T10:10:43.938Z,49.6803
2023-05-14T10:11:45.774Z,49.6831
2023-05-14T10:12:47.600Z,49.6920
2023-05-14T10:13:49.470Z,49.6644
2023-05-14T10:14:51.291Z,49.6374
2023-05-14T10:15:53.124Z,49.6377
2023-05-14T10:16:54.980Z,49.6271
2023-05-14T10:17:56.812Z,49.6564
2023-05-14T10:18:58.670Z,49.6185
2023-05-14T10:20:00.492Z,49.5605
2023-05-14T10:21:02.308Z,49.5176
2023-05-14T10:22:04.244Z,49.4747
2023-05-14T10:23:05.960Z,49.4514
2023-05-14T10:24:07.809Z,49.4446
2023-05-14T10:25:09.653Z,49.4334
2023-05-14T10:26:11.494Z,49.4170
2023-05-14T10:27:13.317Z,49.3961
2023-05-14T10:28:15.146Z,49.3692
2023-05-14T10:29:16.968Z,49.3126
2023-05-14T10:30:18.940Z,49.3163
2023-05-14T10:31:20.710Z,49.3293
2023-05-14T10:32:22.482Z,49.3762
2023-05-14T10:33:24.324Z,49.3642
2023-05-14T10:34:26.167Z,49.3476
2023-05-14T10:35:28.014Z,49.3279
2023-05-14T10:36:29.845Z,49.3416
2023-05-14T10:37:31.687Z,49.3619
2023-05-14T10:38:33.505Z,49.3642
2023-05-14T10:39:35.346Z,49.3457
2023-05-14T10:40:37.182Z,49.3564
2023-05-14T10:41:39.020Z,49.3384
2023-05-14T10:42:40.891Z,49.3062
2023-05-14T10:43:42.734Z,49.2889
2023-05-14T10:44:44.519Z,49.2428
2023-05-14T10:45:46.372Z,49.1686
2023-05-14T10:46:48.275Z,49.0963
2023-05-14T10:47:50.055Z,49.0454
2023-05-14T10:48:51.870Z,48.9664
2023-05-14T10:49:53.740Z,48.9103
2023-05-14T10:50:55.588Z,48.8659
2023-05-14T10:51:57.397Z,48.8284
2023-05-14T10:52:59.311Z,48.7704
2023-05-14T10:54:01.129Z,48.7299
2023-05-14T10:55:03.845Z,48.6825
2023-05-14T10:56:04.845Z,48.6825
2023-05-14T10:57:06.651Z,48.6956
2023-05-14T10:58:08.487Z,48.6857
2023-05-14T10:59:10.311Z,48.6924
2023-05-14T11:00:12.144Z,48.6609
2023-05-14T11:01:14.001Z,48.6530
2023-05-14T11:02:16.050Z,48.6346
2023-05-14T11:03:17.698Z,48.6002
2023-05-14T11:04:19.637Z,48.6285
2023-05-14T11:05:21.335Z,48.6849
2023-05-14T11:06:23.181Z,48.7231
2023-05-14T11:07:25.023Z,48.6975
2023-05-14T11:08:28.064Z,48.6717
2023-05-14T11:09:28.692Z,48.6106
2023-05-14T11:10:30.516Z,48.5472
2023-05-14T11:11:32.362Z,48.4538
2023-05-14T11:12:34.204Z,48.4627
2023-05-14T11:13:36.033Z,48.4428
2023-05-14T11:14:37.891Z,48.5001
2023-05-14T11:15:39.711Z,48.5776
2023-05-14T11:16:41.563Z,48.6085
2023-05-14T11:17:43.464Z,48.7170
2023-05-14T11:18:45.249Z,48.7789
2023-05-14T11:19:48.343Z,48.8444
2023-05-14T11:20:48.924Z,48.8585
2023-05-14T11:21:50.781Z,48.8800
2023-05-14T11:22:52.571Z,48.8960
2023-05-14T11:23:54.397Z,48.8744
2023-05-14T11:24:56.230Z,48.8532
2023-05-14T11:25:58.112Z,48.8789
2023-05-14T11:26:59.928Z,48.8913
2023-05-14T11:28:01.761Z,48.8717
2023-05-14T11:29:03.606Z,48.8259
2023-05-14T11:30:05.423Z,48.8360
2023-05-14T11:31:07.265Z,48.8042
2023-05-14T11:32:09.210Z,48.7428
2023-05-14T11:33:11.011Z,48.7137
2023-05-14T11:34:12.818Z,48.7183
2023-05-14T11:35:14.630Z,48.7665
2023-05-14T11:36:16.453Z,48.7586
2023-05-14T11:37:18.287Z,48.7456
2023-05-14T11:38:20.129Z,48.6926
2023-05-14T11:39:21.969Z,48.7144
2023-05-14T11:40:23.931Z,48.7257
2023-05-14T11:41:25.630Z,48.7058
2023-05-14T11:42:27.469Z,48.6488
2023-05-14T11:43:29.477Z,48.6015
2023-05-14T11:44:31.172Z,48.6029
2023-05-14T11:45:33.006Z,48.6110
2023-05-14T11:46:34.965Z,48.6143
2023-05-14T11:47:36.730Z,48.5873
2023-05-14T11:48:38.519Z,48.5369
2023-05-14T11:49:40.347Z,48.5368
2023-05-14T11:50:42.181Z,48.4991
2023-05-14T11:51:44.007Z,48.4788
2023-05-14T11:52:45.883Z,48.4726
2023-05-14T11:53:47.693Z,48.4991
2023-05-14T11:54:49.546Z,48.5375
2023-05-14T11:55:51.371Z,48.5280
2023-05-14T11:56:53.195Z,48.5415
2023-05-14T11:57:55.051Z,48.5015
2023-05-14T11:58:56.940Z,48.4739
2023-05-14T11:59:58.732Z,48.4163
2023-05-14T12:01:00.556Z,48.3617
2023-05-14T12:02:02.452Z,48.2861
2023-05-14T12:03:04.384Z,48.2326
2023-05-14T12:04:06.178Z,48.1896
2023-05-14T12:05:07.942Z,48.1655
2023-05-14T12:06:09.745Z,48.1793
2023-05-14T12:07:11.594Z,48.2012
2023-05-14T12:08:13.476Z,48.1635
2023-05-14T12:09:15.281Z,48.1572
2023-05-14T12:10:17.112Z,48.1637
2023-05-14T12:11:18.964Z,48.1259
2023-05-14T12:12:20.784Z,48.1425
2023-05-14T12:13:22.650Z,48.0911
2023-05-14T12:14:24.490Z,47.9723
2023-05-14T12:15:26.326Z,47.8899
2023-05-14T12:16:28.218Z,47.8041
2023-05-14T12:17:30.019Z,47.6813
2023-05-14T12:18:31.970Z,47.5212
2023-05-14T12:19:33.674Z,47.4356
2023-05-14T12:20:35.517Z,47.3621
2023-05-14T12:21:37.368Z,47.2936
2023-05-14T12:22:39.195Z,47.2720
2023-05-14T12:23:41.062Z,47.2349
2023-05-14T12:24:42.908Z,47.2510
2023-05-14T12:25:44.705Z,47.2783
2023-05-14T12:26:46.558Z,47.3299
2023-05-14T12:27:48.400Z,47.3588